sensor_id;sensor_type;location;lat;lon;timestamp;temperature;humidity
5901;DHT22;2976;49.764;9.796;2022-08-30T00:00:40;15.30;99.90
5901;DHT22;2976;49.764;9.796;2022-08-30T00:03:24;15.20;1.00
5901;DHT22;2976;49.764;9.796;2022-08-30T00:05:49;15.00;99.90
5901;DHT22;2976;49.764;9.796;2022-08-30T00:08:15;14.80;1.00
5901;DHT22;2976;49.764;9.796;2022-08-30T00:10:41;14.70;99.90
5901;DHT22;2976;49.764;9.796;2022-08-30T00:13:08;14.50;99.90
5901;DHT22;2976;49.764;9.796;2022-08-30T00:15:34;14.40;1.00
5901;DHT22;2976;49.764;9.796;2022-08-30T00:18:00;14.30;99.90
5901;DHT22;2976;49.764;9.796;2022-08-30T00:20:29;14.20;99.90
5901;DHT22;2976;49.764;9.796;2022-08-30T00:22:55;14.10;1.00
5901;DHT22;2976;49.764;9.796;2022-08-30T00:25:22;14.10;1.00
5901;DHT22;2976;49.764;9.796;2022-08-30T00:27:48;14.00;1.00
5901;DHT22;2976;49.764;9.796;2022-08-30T00:30:15;14.00;99.90
5901;DHT22;2976;49.764;9.796;2022-08-30T00:32:41;13.90;99.90
5901;DHT22;2976;49.764;9.796;2022-08-30T00:35:08;13.90;73.80
5901;DHT22;2976;49.764;9.796;2022-08-30T00:37:34;13.90;96.20
5901;DHT22;2976;49.764;9.796;2022-08-30T00:40:00;13.90;24.10
5901;DHT22;2976;49.764;9.796;2022-08-30T00:42:25;13.90;99.90
5901;DHT22;2976;49.764;9.796;2022-08-30T00:44:51;13.90;99.90
5901;DHT22;2976;49.764;9.796;2022-08-30T00:47:17;13.90;99.90
5901;DHT22;2976;49.764;9.796;2022-08-30T00:49:46;13.80;99.90
5901;DHT22;2976;49.764;9.796;2022-08-30T00:52:14;13.80;99.90
5901;DHT22;2976;49.764;9.796;2022-08-30T00:54:42;13.80;1.00
5901;DHT22;2976;49.764;9.796;2022-08-30T00:57:10;13.80;1.00
5901;DHT22;2976;49.764;9.796;2022-08-30T00:59:37;13.80;1.00
5901;DHT22;2976;49.764;9.796;2022-08-30T01:02:03;13.80;1.00
5901;DHT22;2976;49.764;9.796;2022-08-30T01:04:29;13.80;1.00
5901;DHT22;2976;49.764;9.796;2022-08-30T01:06:55;13.80;24.60
5901;DHT22;2976;49.764;9.796;2022-08-30T01:09:23;13.90;32.90
5901;DHT22;2976;49.764;9.796;2022-08-30T01:11:48;13.90;1.00
5901;DHT22;2976;49.764;9.796;2022-08-30T01:14:15;13.90;1.00
5901;DHT22;2976;49.764;9.796;2022-08-30T01:16:42;14.00;1.00
5901;DHT22;2976;49.764;9.796;2022-08-30T01:19:35;14.00;99.90
5901;DHT22;2976;49.764;9.796;2022-08-30T01:22:10;13.90;99.90
5901;DHT22;2976;49.764;9.796;2022-08-30T01:24:41;13.80;1.00
5901;DHT22;2976;49.764;9.796;2022-08-30T01:27:14;13.80;1.00
5901;DHT22;2976;49.764;9.796;2022-08-30T01:29:40;13.60;99.90
5901;DHT22;2976;49.764;9.796;2022-08-30T01:32:16;13.60;99.90
5901;DHT22;2976;49.764;9.796;2022-08-30T01:34:43;13.50;1.00
5901;DHT22;2976;49.764;9.796;2022-08-30T01:37:09;13.40;1.00
5901;DHT22;2976;49.764;9.796;2022-08-30T01:39:35;13.40;1.00
5901;DHT22;2976;49.764;9.796;2022-08-30T01:42:01;13.30;1.00
5901;DHT22;2976;49.764;9.796;2022-08-30T01:44:27;13.30;1.00
5901;DHT22;2976;49.764;9.796;2022-08-30T01:46:53;13.20;99.90
5901;DHT22;2976;49.764;9.796;2022-08-30T01:49:19;13.20;99.90
5901;DHT22;2976;49.764;9.796;2022-08-30T01:51:45;13.10;99.90
5901;DHT22;2976;49.764;9.796;2022-08-30T01:54:11;13.10;99.90
5901;DHT22;2976;49.764;9.796;2022-08-30T01:56:37;13.00;99.90
5901;DHT22;2976;49.764;9.796;2022-08-30T01:59:04;12.90;99.90
5901;DHT22;2976;49.764;9.796;2022-08-30T02:01:31;12.90;99.90
5901;DHT22;2976;49.764;9.796;2022-08-30T02:03:57;13.00;1.00
5901;DHT22;2976;49.764;9.796;2022-08-30T02:06:23;12.90;1.00
5901;DHT22;2976;49.764;9.796;2022-08-30T02:08:49;13.00;1.00
5901;DHT22;2976;49.764;9.796;2022-08-30T02:11:15;13.00;1.00
5901;DHT22;2976;49.764;9.796;2022-08-30T02:13:42;13.00;1.00
5901;DHT22;2976;49.764;9.796;2022-08-30T02:16:11;13.00;1.00
5901;DHT22;2976;49.764;9.796;2022-08-30T02:18:38;12.90;99.90
5901;DHT22;2976;49.764;9.796;2022-08-30T02:21:05;12.90;1.00
5901;DHT22;2976;49.764;9.796;2022-08-30T02:23:30;12.90;1.00
5901;DHT22;2976;49.764;9.796;2022-08-30T02:25:57;12.90;1.00
5901;DHT22;2976;49.764;9.796;2022-08-30T02:28:23;12.80;1.00
5901;DHT22;2976;49.764;9.796;2022-08-30T02:30:50;12.70;99.90
5901;DHT22;2976;49.764;9.796;2022-08-30T02:33:16;12.60;1.00
5901;DHT22;2976;49.764;9.796;2022-08-30T02:35:41;12.50;1.00
5901;DHT22;2976;49.764;9.796;2022-08-30T02:38:07;12.40;1.00
5901;DHT22;2976;49.764;9.796;2022-08-30T02:40:33;12.40;1.00
5901;DHT22;2976;49.764;9.796;2022-08-30T02:42:58;12.40;1.00
5901;DHT22;2976;49.764;9.796;2022-08-30T02:45:24;12.40;1.00
5901;DHT22;2976;49.764;9.796;2022-08-30T02:47:50;12.50;1.00
5901;DHT22;2976;49.764;9.796;2022-08-30T02:50:16;12.50;1.00
5901;DHT22;2976;49.764;9.796;2022-08-30T02:52:42;12.60;1.00
5901;DHT22;2976;49.764;9.796;2022-08-30T02:55:08;12.60;1.00
5901;DHT22;2976;49.764;9.796;2022-08-30T02:57:34;12.60;1.00
5901;DHT22;2976;49.764;9.796;2022-08-30T02:59:59;12.60;1.00
5901;DHT22;2976;49.764;9.796;2022-08-30T03:02:26;12.60;1.00
5901;DHT22;2976;49.764;9.796;2022-08-30T03:04:52;12.60;1.00
5901;DHT22;2976;49.764;9.796;2022-08-30T03:07:18;12.50;1.00
5901;DHT22;2976;49.764;9.796;2022-08-30T03:09:44;12.60;1.00
5901;DHT22;2976;49.764;9.796;2022-08-30T03:12:10;12.60;1.00
5901;DHT22;2976;49.764;9.796;2022-08-30T03:14:37;12.50;1.00
5901;DHT22;2976;49.764;9.796;2022-08-30T03:17:05;12.40;1.00
5901;DHT22;2976;49.764;9.796;2022-08-30T03:19:32;12.40;1.00
5901;DHT22;2976;49.764;9.796;2022-08-30T03:21:58;12.30;1.00
5901;DHT22;2976;49.764;9.796;2022-08-30T03:24:24;12.20;1.00
5901;DHT22;2976;49.764;9.796;2022-08-30T03:26:50;12.10;1.00
5901;DHT22;2976;49.764;9.796;2022-08-30T03:29:16;12.00;1.00
5901;DHT22;2976;49.764;9.796;2022-08-30T03:31:41;11.90;1.00
5901;DHT22;2976;49.764;9.796;2022-08-30T03:34:07;11.80;1.00
5901;DHT22;2976;49.764;9.796;2022-08-30T03:36:36;11.70;1.00
5901;DHT22;2976;49.764;9.796;2022-08-30T03:39:06;11.70;1.00
5901;DHT22;2976;49.764;9.796;2022-08-30T03:41:32;11.70;1.00
5901;DHT22;2976;49.764;9.796;2022-08-30T03:43:59;11.60;1.00
5901;DHT22;2976;49.764;9.796;2022-08-30T03:46:25;11.60;1.00
5901;DHT22;2976;49.764;9.796;2022-08-30T03:48:51;11.60;1.00
5901;DHT22;2976;49.764;9.796;2022-08-30T03:51:17;11.50;3.10
5901;DHT22;2976;49.764;9.796;2022-08-30T03:53:43;11.60;15.00
5901;DHT22;2976;49.764;9.796;2022-08-30T03:56:09;11.70;20.80
5901;DHT22;2976;49.764;9.796;2022-08-30T03:58:35;11.70;22.90
5901;DHT22;2976;49.764;9.796;2022-08-30T04:01:00;11.90;23.90
5901;DHT22;2976;49.764;9.796;2022-08-30T04:03:26;11.90;23.90
5901;DHT22;2976;49.764;9.796;2022-08-30T04:05:53;12.00;17.20
5901;DHT22;2976;49.764;9.796;2022-08-30T04:08:19;12.10;15.70
5901;DHT22;2976;49.764;9.796;2022-08-30T04:10:45;12.10;1.00
5901;DHT22;2976;49.764;9.796;2022-08-30T04:13:13;12.10;1.00
5901;DHT22;2976;49.764;9.796;2022-08-30T04:15:38;12.00;1.00
5901;DHT22;2976;49.764;9.796;2022-08-30T04:18:04;11.90;1.00
5901;DHT22;2976;49.764;9.796;2022-08-30T04:20:30;11.70;1.00
5901;DHT22;2976;49.764;9.796;2022-08-30T04:22:55;11.60;1.00
5901;DHT22;2976;49.764;9.796;2022-08-30T04:25:21;11.50;1.00
5901;DHT22;2976;49.764;9.796;2022-08-30T04:27:46;11.40;1.00
5901;DHT22;2976;49.764;9.796;2022-08-30T04:30:14;11.30;1.00
5901;DHT22;2976;49.764;9.796;2022-08-30T04:32:40;11.40;1.00
5901;DHT22;2976;49.764;9.796;2022-08-30T04:35:05;11.40;12.10
5901;DHT22;2976;49.764;9.796;2022-08-30T04:37:31;11.40;12.20
5901;DHT22;2976;49.764;9.796;2022-08-30T04:39:57;11.40;14.70
5901;DHT22;2976;49.764;9.796;2022-08-30T04:42:25;11.40;14.30
5901;DHT22;2976;49.764;9.796;2022-08-30T04:44:54;11.40;24.00
5901;DHT22;2976;49.764;9.796;2022-08-30T04:47:19;11.50;30.00
5901;DHT22;2976;49.764;9.796;2022-08-30T04:49:45;11.50;43.70
5901;DHT22;2976;49.764;9.796;2022-08-30T04:52:10;11.50;5.40
5901;DHT22;2976;49.764;9.796;2022-08-30T04:54:36;11.50;7.00
5901;DHT22;2976;49.764;9.796;2022-08-30T04:57:01;11.40;1.00
5901;DHT22;2976;49.764;9.796;2022-08-30T04:59:27;11.40;6.50
5901;DHT22;2976;49.764;9.796;2022-08-30T05:01:53;11.40;7.20
5901;DHT22;2976;49.764;9.796;2022-08-30T05:04:18;11.40;10.30
5901;DHT22;2976;49.764;9.796;2022-08-30T05:06:44;11.50;41.80
5901;DHT22;2976;49.764;9.796;2022-08-30T05:09:10;11.60;51.00
5901;DHT22;2976;49.764;9.796;2022-08-30T05:11:35;11.70;50.90
5901;DHT22;2976;49.764;9.796;2022-08-30T05:14:02;11.70;33.10
5901;DHT22;2976;49.764;9.796;2022-08-30T05:16:28;11.70;28.20
5901;DHT22;2976;49.764;9.796;2022-08-30T05:18:53;11.70;22.30
5901;DHT22;2976;49.764;9.796;2022-08-30T05:21:21;11.70;8.20
5901;DHT22;2976;49.764;9.796;2022-08-30T05:23:48;11.70;9.90
5901;DHT22;2976;49.764;9.796;2022-08-30T05:26:20;11.70;1.00
5901;DHT22;2976;49.764;9.796;2022-08-30T05:28:46;11.70;1.00
5901;DHT22;2976;49.764;9.796;2022-08-30T05:31:15;11.70;1.00
5901;DHT22;2976;49.764;9.796;2022-08-30T05:33:42;11.70;1.00
5901;DHT22;2976;49.764;9.796;2022-08-30T05:36:09;11.80;1.00
5901;DHT22;2976;49.764;9.796;2022-08-30T05:38:34;11.80;4.50
5901;DHT22;2976;49.764;9.796;2022-08-30T05:41:00;11.90;7.10
5901;DHT22;2976;49.764;9.796;2022-08-30T05:43:26;12.00;7.20
5901;DHT22;2976;49.764;9.796;2022-08-30T05:45:59;12.10;6.70
5901;DHT22;2976;49.764;9.796;2022-08-30T05:48:25;12.20;2.10
5901;DHT22;2976;49.764;9.796;2022-08-30T05:51:09;12.30;2.80
5901;DHT22;2976;49.764;9.796;2022-08-30T05:53:36;12.50;1.00
5901;DHT22;2976;49.764;9.796;2022-08-30T05:56:04;12.70;1.00
5901;DHT22;2976;49.764;9.796;2022-08-30T05:58:30;12.80;1.00
5901;DHT22;2976;49.764;9.796;2022-08-30T06:00:56;13.10;1.00
5901;DHT22;2976;49.764;9.796;2022-08-30T06:03:22;13.60;1.00
5901;DHT22;2976;49.764;9.796;2022-08-30T06:05:48;14.20;1.00
5901;DHT22;2976;49.764;9.796;2022-08-30T06:08:14;14.80;99.90
5901;DHT22;2976;49.764;9.796;2022-08-30T06:10:39;15.40;99.90
5901;DHT22;2976;49.764;9.796;2022-08-30T06:13:05;15.90;99.90
5901;DHT22;2976;49.764;9.796;2022-08-30T06:15:30;16.10;1.00
5901;DHT22;2976;49.764;9.796;2022-08-30T06:17:56;16.40;99.90
5901;DHT22;2976;49.764;9.796;2022-08-30T06:20:22;16.90;99.90
5901;DHT22;2976;49.764;9.796;2022-08-30T06:22:47;18.30;1.00
5901;DHT22;2976;49.764;9.796;2022-08-30T06:25:13;18.90;1.00
5901;DHT22;2976;49.764;9.796;2022-08-30T06:27:40;19.60;99.90
5901;DHT22;2976;49.764;9.796;2022-08-30T06:30:07;19.60;99.90
5901;DHT22;2976;49.764;9.796;2022-08-30T06:32:36;20.10;99.90
5901;DHT22;2976;49.764;9.796;2022-08-30T06:35:02;20.50;57.20
5901;DHT22;2976;49.764;9.796;2022-08-30T06:37:27;21.00;66.00
5901;DHT22;2976;49.764;9.796;2022-08-30T06:39:53;21.60;1.00
5901;DHT22;2976;49.764;9.796;2022-08-30T06:42:19;22.20;1.00
5901;DHT22;2976;49.764;9.796;2022-08-30T06:44:44;22.30;1.00
5901;DHT22;2976;49.764;9.796;2022-08-30T06:47:10;22.00;1.00
5901;DHT22;2976;49.764;9.796;2022-08-30T06:49:36;22.20;1.00
5901;DHT22;2976;49.764;9.796;2022-08-30T06:52:02;21.90;1.00
5901;DHT22;2976;49.764;9.796;2022-08-30T06:54:27;21.80;1.00
5901;DHT22;2976;49.764;9.796;2022-08-30T06:56:53;21.20;1.00
5901;DHT22;2976;49.764;9.796;2022-08-30T06:59:18;20.50;99.90
5901;DHT22;2976;49.764;9.796;2022-08-30T07:01:44;20.80;60.50
5901;DHT22;2976;49.764;9.796;2022-08-30T07:04:09;20.90;92.20
5901;DHT22;2976;49.764;9.796;2022-08-30T07:06:35;21.00;41.80
5901;DHT22;2976;49.764;9.796;2022-08-30T07:09:00;21.10;29.80
5901;DHT22;2976;49.764;9.796;2022-08-30T07:11:29;21.10;33.20
5901;DHT22;2976;49.764;9.796;2022-08-30T07:13:55;21.10;47.00
5901;DHT22;2976;49.764;9.796;2022-08-30T07:16:20;21.00;99.90
5901;DHT22;2976;49.764;9.796;2022-08-30T07:18:46;21.30;27.70
5901;DHT22;2976;49.764;9.796;2022-08-30T07:21:41;21.50;1.00
5901;DHT22;2976;49.764;9.796;2022-08-30T07:24:08;21.60;1.00
5901;DHT22;2976;49.764;9.796;2022-08-30T07:26:41;21.80;1.00
5901;DHT22;2976;49.764;9.796;2022-08-30T07:29:08;21.80;1.00
5901;DHT22;2976;49.764;9.796;2022-08-30T07:31:34;21.90;1.00
5901;DHT22;2976;49.764;9.796;2022-08-30T07:34:02;22.00;1.00
5901;DHT22;2976;49.764;9.796;2022-08-30T07:36:28;21.70;1.00
5901;DHT22;2976;49.764;9.796;2022-08-30T07:38:54;21.90;1.00
5901;DHT22;2976;49.764;9.796;2022-08-30T07:41:25;21.70;7.20
5901;DHT22;2976;49.764;9.796;2022-08-30T07:43:52;21.90;1.00
5901;DHT22;2976;49.764;9.796;2022-08-30T07:46:18;22.40;1.00
5901;DHT22;2976;49.764;9.796;2022-08-30T07:48:44;22.60;1.00
5901;DHT22;2976;49.764;9.796;2022-08-30T07:51:16;22.30;1.00
5901;DHT22;2976;49.764;9.796;2022-08-30T07:53:41;22.40;1.00
5901;DHT22;2976;49.764;9.796;2022-08-30T07:56:07;22.70;1.00
5901;DHT22;2976;49.764;9.796;2022-08-30T07:58:33;22.70;1.00
5901;DHT22;2976;49.764;9.796;2022-08-30T08:01:02;23.10;1.00
5901;DHT22;2976;49.764;9.796;2022-08-30T08:03:28;23.10;1.00
5901;DHT22;2976;49.764;9.796;2022-08-30T08:05:54;23.20;1.00
5901;DHT22;2976;49.764;9.796;2022-08-30T08:08:21;23.70;1.00
5901;DHT22;2976;49.764;9.796;2022-08-30T08:10:47;24.10;1.00
5901;DHT22;2976;49.764;9.796;2022-08-30T08:13:12;24.60;1.00
5901;DHT22;2976;49.764;9.796;2022-08-30T08:15:38;24.20;1.00
5901;DHT22;2976;49.764;9.796;2022-08-30T08:18:04;24.60;1.00
5901;DHT22;2976;49.764;9.796;2022-08-30T08:20:31;24.30;1.00
5901;DHT22;2976;49.764;9.796;2022-08-30T08:22:57;24.50;1.00
5901;DHT22;2976;49.764;9.796;2022-08-30T08:25:22;24.90;1.00
5901;DHT22;2976;49.764;9.796;2022-08-30T08:27:49;25.30;1.00
5901;DHT22;2976;49.764;9.796;2022-08-30T08:30:19;25.50;1.00
5901;DHT22;2976;49.764;9.796;2022-08-30T08:32:45;25.80;1.00
5901;DHT22;2976;49.764;9.796;2022-08-30T08:35:10;25.60;1.00
5901;DHT22;2976;49.764;9.796;2022-08-30T08:37:37;26.10;1.00
5901;DHT22;2976;49.764;9.796;2022-08-30T08:40:03;26.20;1.00
5901;DHT22;2976;49.764;9.796;2022-08-30T08:43:02;26.40;1.00
5901;DHT22;2976;49.764;9.796;2022-08-30T08:45:42;26.00;1.00
5901;DHT22;2976;49.764;9.796;2022-08-30T08:48:30;26.00;1.00
5901;DHT22;2976;49.764;9.796;2022-08-30T08:50:57;26.20;1.00
5901;DHT22;2976;49.764;9.796;2022-08-30T08:53:47;26.10;1.00
5901;DHT22;2976;49.764;9.796;2022-08-30T08:56:17;26.20;1.00
5901;DHT22;2976;49.764;9.796;2022-08-30T08:58:49;25.90;1.00
5901;DHT22;2976;49.764;9.796;2022-08-30T09:01:18;26.00;1.00
5901;DHT22;2976;49.764;9.796;2022-08-30T09:03:45;26.30;1.00
5901;DHT22;2976;49.764;9.796;2022-08-30T09:06:39;26.50;1.00
5901;DHT22;2976;49.764;9.796;2022-08-30T09:09:07;26.70;1.00
5901;DHT22;2976;49.764;9.796;2022-08-30T09:11:34;26.50;1.00
5901;DHT22;2976;49.764;9.796;2022-08-30T09:14:02;26.60;1.00
5901;DHT22;2976;49.764;9.796;2022-08-30T09:17:06;26.90;1.00
5901;DHT22;2976;49.764;9.796;2022-08-30T09:24:46;26.90;1.00
5901;DHT22;2976;49.764;9.796;2022-08-30T09:29:51;26.80;1.00
5901;DHT22;2976;49.764;9.796;2022-08-30T09:32:29;26.80;1.00
5901;DHT22;2976;49.764;9.796;2022-08-30T09:34:55;26.60;1.00
5901;DHT22;2976;49.764;9.796;2022-08-30T09:37:27;26.70;1.00
5901;DHT22;2976;49.764;9.796;2022-08-30T09:39:55;27.00;1.00
5901;DHT22;2976;49.764;9.796;2022-08-30T09:42:22;26.90;1.00
5901;DHT22;2976;49.764;9.796;2022-08-30T09:44:52;27.40;1.00
5901;DHT22;2976;49.764;9.796;2022-08-30T09:47:27;27.70;1.00
5901;DHT22;2976;49.764;9.796;2022-08-30T09:52:44;27.90;1.00
5901;DHT22;2976;49.764;9.796;2022-08-30T09:55:36;27.90;1.00
5901;DHT22;2976;49.764;9.796;2022-08-30T09:58:33;27.70;1.00
5901;DHT22;2976;49.764;9.796;2022-08-30T10:01:10;27.50;1.00
5901;DHT22;2976;49.764;9.796;2022-08-30T10:03:59;27.80;1.00
5901;DHT22;2976;49.764;9.796;2022-08-30T10:06:49;27.30;1.00
5901;DHT22;2976;49.764;9.796;2022-08-30T10:09:25;27.00;1.00
5901;DHT22;2976;49.764;9.796;2022-08-30T10:20:32;28.10;1.00
5901;DHT22;2976;49.764;9.796;2022-08-30T10:23:12;28.50;1.00
5901;DHT22;2976;49.764;9.796;2022-08-30T10:25:49;28.90;1.00
5901;DHT22;2976;49.764;9.796;2022-08-30T10:30:57;28.90;1.00
5901;DHT22;2976;49.764;9.796;2022-08-30T10:33:34;29.10;1.00
5901;DHT22;2976;49.764;9.796;2022-08-30T10:36:03;28.80;1.00
5901;DHT22;2976;49.764;9.796;2022-08-30T10:38:34;28.80;1.00
5901;DHT22;2976;49.764;9.796;2022-08-30T10:49:13;28.10;1.00
5901;DHT22;2976;49.764;9.796;2022-08-30T10:51:49;28.40;1.00
5901;DHT22;2976;49.764;9.796;2022-08-30T10:54:25;28.50;1.00
5901;DHT22;2976;49.764;9.796;2022-08-30T10:56:56;29.00;1.00
5901;DHT22;2976;49.764;9.796;2022-08-30T10:59:22;29.00;1.00
5901;DHT22;2976;49.764;9.796;2022-08-30T11:05:06;28.80;1.00
5901;DHT22;2976;49.764;9.796;2022-08-30T11:07:56;28.50;1.00
5901;DHT22;2976;49.764;9.796;2022-08-30T11:13:14;28.60;1.00
5901;DHT22;2976;49.764;9.796;2022-08-30T11:15:57;28.90;1.00
5901;DHT22;2976;49.764;9.796;2022-08-30T11:18:25;29.20;1.00
5901;DHT22;2976;49.764;9.796;2022-08-30T11:20:54;29.10;1.00
5901;DHT22;2976;49.764;9.796;2022-08-30T11:23:39;28.80;1.00
5901;DHT22;2976;49.764;9.796;2022-08-30T11:26:10;28.80;1.00
5901;DHT22;2976;49.764;9.796;2022-08-30T11:33:46;28.10;1.00
5901;DHT22;2976;49.764;9.796;2022-08-30T11:41:36;28.80;1.00
5901;DHT22;2976;49.764;9.796;2022-08-30T11:46:51;28.30;1.00
5901;DHT22;2976;49.764;9.796;2022-08-30T12:00:28;28.80;1.00
5901;DHT22;2976;49.764;9.796;2022-08-30T12:02:57;28.50;1.00
5901;DHT22;2976;49.764;9.796;2022-08-30T12:10:53;28.30;1.00
5901;DHT22;2976;49.764;9.796;2022-08-30T12:16:09;28.90;1.00
5901;DHT22;2976;49.764;9.796;2022-08-30T12:18:45;28.90;1.00
5901;DHT22;2976;49.764;9.796;2022-08-30T12:31:44;28.50;1.00
5901;DHT22;2976;49.764;9.796;2022-08-30T12:39:36;28.40;1.00
5901;DHT22;2976;49.764;9.796;2022-08-30T12:42:30;28.50;1.00
5901;DHT22;2976;49.764;9.796;2022-08-30T12:44:59;28.60;1.00
5901;DHT22;2976;49.764;9.796;2022-08-30T12:47:49;28.70;1.00
5901;DHT22;2976;49.764;9.796;2022-08-30T12:50:24;28.40;1.00
5901;DHT22;2976;49.764;9.796;2022-08-30T12:53:00;28.40;1.00
5901;DHT22;2976;49.764;9.796;2022-08-30T12:55:31;28.60;1.00
5901;DHT22;2976;49.764;9.796;2022-08-30T12:58:08;28.00;1.00
5901;DHT22;2976;49.764;9.796;2022-08-30T13:00:36;28.10;1.00
5901;DHT22;2976;49.764;9.796;2022-08-30T13:03:33;28.30;1.00
5901;DHT22;2976;49.764;9.796;2022-08-30T13:05:59;28.50;1.00
5901;DHT22;2976;49.764;9.796;2022-08-30T13:14:18;28.00;1.00
5901;DHT22;2976;49.764;9.796;2022-08-30T13:16:42;28.10;1.00
5901;DHT22;2976;49.764;9.796;2022-08-30T13:19:33;28.20;1.00
5901;DHT22;2976;49.764;9.796;2022-08-30T13:22:00;28.40;1.00
5901;DHT22;2976;49.764;9.796;2022-08-30T13:24:27;28.40;1.00
5901;DHT22;2976;49.764;9.796;2022-08-30T13:26:55;28.60;1.00
5901;DHT22;2976;49.764;9.796;2022-08-30T13:29:25;28.60;1.00
5901;DHT22;2976;49.764;9.796;2022-08-30T13:31:51;28.60;1.00
5901;DHT22;2976;49.764;9.796;2022-08-30T13:34:17;28.40;1.00
5901;DHT22;2976;49.764;9.796;2022-08-30T13:36:53;28.30;1.00
5901;DHT22;2976;49.764;9.796;2022-08-30T13:39:19;28.40;1.00
5901;DHT22;2976;49.764;9.796;2022-08-30T13:41:45;28.50;1.00
5901;DHT22;2976;49.764;9.796;2022-08-30T13:44:10;28.50;1.00
5901;DHT22;2976;49.764;9.796;2022-08-30T13:46:39;28.50;1.00
5901;DHT22;2976;49.764;9.796;2022-08-30T13:49:21;28.50;1.00
5901;DHT22;2976;49.764;9.796;2022-08-30T13:51:47;28.60;1.00
5901;DHT22;2976;49.764;9.796;2022-08-30T13:54:15;28.50;1.00
5901;DHT22;2976;49.764;9.796;2022-08-30T13:56:40;28.30;1.00
5901;DHT22;2976;49.764;9.796;2022-08-30T13:59:06;28.30;1.00
5901;DHT22;2976;49.764;9.796;2022-08-30T14:01:32;28.40;1.00
5901;DHT22;2976;49.764;9.796;2022-08-30T14:03:57;28.40;1.00
5901;DHT22;2976;49.764;9.796;2022-08-30T14:06:23;28.60;1.00
5901;DHT22;2976;49.764;9.796;2022-08-30T14:08:48;28.80;1.00
5901;DHT22;2976;49.764;9.796;2022-08-30T14:11:16;28.90;1.00
5901;DHT22;2976;49.764;9.796;2022-08-30T14:13:42;28.90;1.00
5901;DHT22;2976;49.764;9.796;2022-08-30T14:16:08;28.60;1.00
5901;DHT22;2976;49.764;9.796;2022-08-30T14:18:34;28.30;1.00
5901;DHT22;2976;49.764;9.796;2022-08-30T14:20:59;28.00;1.00
5901;DHT22;2976;49.764;9.796;2022-08-30T14:23:26;28.00;1.00
5901;DHT22;2976;49.764;9.796;2022-08-30T14:25:52;28.10;1.00
5901;DHT22;2976;49.764;9.796;2022-08-30T14:28:18;28.30;1.00
5901;DHT22;2976;49.764;9.796;2022-08-30T14:30:43;28.30;1.00
5901;DHT22;2976;49.764;9.796;2022-08-30T14:33:09;28.30;1.00
5901;DHT22;2976;49.764;9.796;2022-08-30T14:35:34;28.20;1.00
5901;DHT22;2976;49.764;9.796;2022-08-30T14:38:00;28.20;1.00
5901;DHT22;2976;49.764;9.796;2022-08-30T14:40:26;28.20;1.00
5901;DHT22;2976;49.764;9.796;2022-08-30T14:42:51;28.20;1.00
5901;DHT22;2976;49.764;9.796;2022-08-30T14:45:17;28.10;1.00
5901;DHT22;2976;49.764;9.796;2022-08-30T14:47:43;28.00;1.00
5901;DHT22;2976;49.764;9.796;2022-08-30T14:50:08;28.00;1.00
5901;DHT22;2976;49.764;9.796;2022-08-30T14:52:35;27.80;1.00
5901;DHT22;2976;49.764;9.796;2022-08-30T14:55:02;27.90;1.00
5901;DHT22;2976;49.764;9.796;2022-08-30T14:57:28;27.80;1.00
5901;DHT22;2976;49.764;9.796;2022-08-30T14:59:53;27.70;1.00
5901;DHT22;2976;49.764;9.796;2022-08-30T15:02:19;27.70;1.00
5901;DHT22;2976;49.764;9.796;2022-08-30T15:04:44;27.70;1.00
5901;DHT22;2976;49.764;9.796;2022-08-30T15:07:10;27.80;1.00
5901;DHT22;2976;49.764;9.796;2022-08-30T15:09:35;27.80;1.00
5901;DHT22;2976;49.764;9.796;2022-08-30T15:12:02;27.80;1.00
5901;DHT22;2976;49.764;9.796;2022-08-30T15:14:29;27.90;1.00
5901;DHT22;2976;49.764;9.796;2022-08-30T15:16:56;27.90;1.00
5901;DHT22;2976;49.764;9.796;2022-08-30T15:19:22;27.80;1.00
5901;DHT22;2976;49.764;9.796;2022-08-30T15:21:48;27.70;1.00
5901;DHT22;2976;49.764;9.796;2022-08-30T15:24:17;27.70;1.00
5901;DHT22;2976;49.764;9.796;2022-08-30T15:26:42;27.60;1.00
5901;DHT22;2976;49.764;9.796;2022-08-30T15:29:10;27.60;1.00
5901;DHT22;2976;49.764;9.796;2022-08-30T15:31:36;27.50;1.00
5901;DHT22;2976;49.764;9.796;2022-08-30T15:34:02;27.50;1.00
5901;DHT22;2976;49.764;9.796;2022-08-30T15:36:28;27.60;1.00
5901;DHT22;2976;49.764;9.796;2022-08-30T15:38:54;27.50;1.00
5901;DHT22;2976;49.764;9.796;2022-08-30T15:41:22;27.60;1.00
5901;DHT22;2976;49.764;9.796;2022-08-30T15:43:48;27.80;1.00
5901;DHT22;2976;49.764;9.796;2022-08-30T15:46:15;27.90;1.00
5901;DHT22;2976;49.764;9.796;2022-08-30T15:48:41;27.90;1.00
5901;DHT22;2976;49.764;9.796;2022-08-30T15:51:07;27.90;1.00
5901;DHT22;2976;49.764;9.796;2022-08-30T15:53:33;27.80;1.00
5901;DHT22;2976;49.764;9.796;2022-08-30T15:55:59;27.90;1.00
5901;DHT22;2976;49.764;9.796;2022-08-30T15:58:25;27.80;1.00
5901;DHT22;2976;49.764;9.796;2022-08-30T16:00:50;27.70;1.00
5901;DHT22;2976;49.764;9.796;2022-08-30T16:03:16;27.80;1.00
5901;DHT22;2976;49.764;9.796;2022-08-30T16:05:42;27.80;1.00
5901;DHT22;2976;49.764;9.796;2022-08-30T16:08:07;27.80;1.00
5901;DHT22;2976;49.764;9.796;2022-08-30T16:10:33;27.80;1.00
5901;DHT22;2976;49.764;9.796;2022-08-30T16:12:58;27.80;1.00
5901;DHT22;2976;49.764;9.796;2022-08-30T16:15:26;27.80;1.00
5901;DHT22;2976;49.764;9.796;2022-08-30T16:17:51;27.70;1.00
5901;DHT22;2976;49.764;9.796;2022-08-30T16:20:17;27.70;1.00
5901;DHT22;2976;49.764;9.796;2022-08-30T16:22:43;27.70;1.00
5901;DHT22;2976;49.764;9.796;2022-08-30T16:25:08;27.50;1.00
5901;DHT22;2976;49.764;9.796;2022-08-30T16:27:34;27.30;1.00
5901;DHT22;2976;49.764;9.796;2022-08-30T16:30:00;27.30;1.00
5901;DHT22;2976;49.764;9.796;2022-08-30T16:32:25;27.20;1.00
5901;DHT22;2976;49.764;9.796;2022-08-30T16:34:51;27.10;1.00
5901;DHT22;2976;49.764;9.796;2022-08-30T16:37:16;27.10;1.00
5901;DHT22;2976;49.764;9.796;2022-08-30T16:39:42;27.20;1.00
5901;DHT22;2976;49.764;9.796;2022-08-30T16:42:07;27.10;1.00
5901;DHT22;2976;49.764;9.796;2022-08-30T16:44:33;27.00;1.00
5901;DHT22;2976;49.764;9.796;2022-08-30T16:46:58;26.90;1.00
5901;DHT22;2976;49.764;9.796;2022-08-30T16:49:24;26.80;1.00
5901;DHT22;2976;49.764;9.796;2022-08-30T16:51:50;26.80;1.00
5901;DHT22;2976;49.764;9.796;2022-08-30T16:54:16;26.60;1.00
5901;DHT22;2976;49.764;9.796;2022-08-30T16:56:42;26.50;1.00
5901;DHT22;2976;49.764;9.796;2022-08-30T16:59:08;26.30;1.00
5901;DHT22;2976;49.764;9.796;2022-08-30T17:01:36;26.20;1.00
5901;DHT22;2976;49.764;9.796;2022-08-30T17:04:03;26.20;1.00
5901;DHT22;2976;49.764;9.796;2022-08-30T17:06:29;26.10;1.00
5901;DHT22;2976;49.764;9.796;2022-08-30T17:08:55;26.10;1.00
5901;DHT22;2976;49.764;9.796;2022-08-30T17:11:20;26.00;1.00
5901;DHT22;2976;49.764;9.796;2022-08-30T17:13:46;26.00;1.00
5901;DHT22;2976;49.764;9.796;2022-08-30T17:16:11;26.00;1.00
5901;DHT22;2976;49.764;9.796;2022-08-30T17:18:37;26.00;1.00
5901;DHT22;2976;49.764;9.796;2022-08-30T17:21:03;25.90;1.00
5901;DHT22;2976;49.764;9.796;2022-08-30T17:23:29;25.80;1.00
5901;DHT22;2976;49.764;9.796;2022-08-30T17:25:55;25.80;1.00
5901;DHT22;2976;49.764;9.796;2022-08-30T17:28:21;25.80;1.00
5901;DHT22;2976;49.764;9.796;2022-08-30T17:30:47;25.80;1.00
5901;DHT22;2976;49.764;9.796;2022-08-30T17:33:12;25.80;1.00
5901;DHT22;2976;49.764;9.796;2022-08-30T17:35:39;25.70;1.00
5901;DHT22;2976;49.764;9.796;2022-08-30T17:38:05;25.60;1.00
5901;DHT22;2976;49.764;9.796;2022-08-30T17:40:31;25.50;1.00
5901;DHT22;2976;49.764;9.796;2022-08-30T17:42:56;25.40;1.00
5901;DHT22;2976;49.764;9.796;2022-08-30T17:45:22;25.30;1.00
5901;DHT22;2976;49.764;9.796;2022-08-30T17:47:47;25.20;1.00
5901;DHT22;2976;49.764;9.796;2022-08-30T17:50:13;25.00;1.00